createdAt,value
2023-03-06T00:00:09.044Z,4.80
2023-03-06T00:02:38.424Z,2.83
2023-03-06T00:05:05.169Z,6.87
2023-03-06T00:10:17.099Z,4.30
2023-03-06T00:12:43.726Z,4.97
2023-03-06T00:15:10.520Z,5.67
2023-03-06T00:17:37.175Z,2.43
2023-03-06T00:22:48.453Z,3.20
2023-03-06T00:28:02.873Z,5.20
2023-03-06T00:33:14.529Z,2.87
2023-03-06T00:35:41.137Z,3.70
2023-03-06T00:38:07.874Z,4.20
2023-03-06T00:40:34.469Z,3.57
2023-03-06T00:45:45.169Z,4.43
2023-03-06T00:48:11.816Z,3.30
2023-03-06T00:50:38.483Z,7.17
2023-03-06T00:53:05.027Z,5.13
2023-03-06T00:55:33.590Z,2.17
2023-03-06T00:58:00.254Z,5.33
2023-03-06T01:00:27.927Z,6.77
2023-03-06T01:05:41.286Z,5.17
2023-03-06T01:08:09.525Z,3.73
2023-03-06T01:10:39.772Z,4.73
2023-03-06T01:13:06.403Z,2.77
2023-03-06T01:18:17.239Z,4.03
2023-03-06T01:23:28.671Z,4.77
2023-03-06T01:25:55.414Z,6.37
2023-03-06T01:28:22.072Z,5.17
2023-03-06T01:30:48.727Z,4.17
2023-03-06T01:33:18.092Z,2.73
2023-03-06T01:35:44.750Z,3.50
2023-03-06T01:38:12.343Z,2.50
2023-03-06T01:40:38.966Z,4.30
2023-03-06T02:15:55.132Z,3.50
2023-03-06T02:18:21.848Z,4.60
2023-03-06T02:20:51.115Z,0.77
2023-03-06T02:26:14.272Z,3.07
2023-03-06T02:28:40.868Z,3.70
2023-03-06T02:31:07.766Z,6.33
2023-03-06T02:33:34.341Z,2.30
2023-03-06T02:36:01.937Z,5.13
2023-03-06T02:38:29.306Z,4.17
2023-03-06T02:40:58.033Z,5.40
2023-03-06T02:43:29.091Z,3.33
2023-03-06T02:45:56.347Z,3.60
2023-03-06T02:48:22.919Z,2.27
2023-03-06T02:50:49.590Z,2.10
2023-03-06T02:53:16.742Z,3.23
2023-03-06T02:55:43.421Z,5.07
2023-03-06T02:58:10.172Z,3.93
2023-03-06T03:00:39.048Z,4.13
2023-03-06T03:03:08.203Z,2.33
2023-03-06T03:05:34.777Z,2.93
2023-03-06T03:08:10.517Z,3.00
2023-03-06T03:10:37.458Z,6.43
2023-03-06T03:13:04.031Z,3.03
2023-03-06T03:15:31.781Z,3.47
2023-03-06T03:20:42.692Z,2.83
2023-03-06T03:23:09.442Z,6.73
2023-03-06T03:25:36.116Z,3.67
2023-03-06T03:28:03.685Z,3.00
2023-03-06T03:30:30.433Z,2.73
2023-03-06T03:32:57.031Z,1.90
2023-03-06T03:35:24.395Z,2.40
2023-03-06T03:40:38.540Z,5.53
2023-03-06T03:43:05.242Z,3.07
2023-03-06T03:45:32.642Z,2.57
2023-03-06T03:48:24.166Z,1.93
2023-03-06T03:50:51.784Z,4.07
2023-03-06T03:53:21.002Z,3.57
2023-03-06T03:55:48.513Z,3.07
2023-03-06T03:58:17.521Z,1.80
2023-03-06T04:00:44.757Z,5.90
2023-03-06T04:05:58.806Z,3.13
2023-03-06T04:08:25.908Z,2.77
2023-03-06T04:10:53.210Z,2.73
2023-03-06T04:13:21.436Z,4.07
2023-03-06T04:15:49.436Z,1.07
2023-03-06T04:18:19.160Z,3.63
2023-03-06T04:20:46.405Z,4.73
2023-03-06T04:25:57.732Z,5.13
2023-03-06T04:28:24.432Z,8.93
2023-03-06T04:30:51.510Z,6.60
2023-03-06T04:33:19.874Z,4.13
2023-03-06T04:35:46.762Z,7.73
2023-03-06T04:38:19.436Z,7.63
2023-03-06T04:40:46.416Z,3.53
2023-03-06T04:45:57.996Z,4.03
2023-03-06T04:51:10.139Z,6.20
2023-03-06T04:56:21.050Z,6.33
2023-03-06T05:01:31.500Z,4.77
2023-03-06T05:03:58.070Z,5.33
2023-03-06T05:06:24.678Z,3.37
2023-03-06T05:08:51.242Z,8.10
2023-03-06T05:11:17.842Z,7.97
2023-03-06T05:13:44.510Z,7.67
2023-03-06T05:16:11.169Z,4.03
2023-03-06T05:21:22.321Z,6.60
2023-03-06T05:23:49.680Z,7.33
2023-03-06T05:26:16.360Z,7.10
2023-03-06T05:28:42.985Z,6.40
2023-03-06T05:31:09.759Z,4.80
2023-03-06T05:33:36.328Z,3.00
2023-03-06T05:36:02.996Z,5.27
2023-03-06T05:38:29.615Z,4.70
2023-03-06T05:40:56.217Z,5.43
2023-03-06T05:43:22.762Z,7.37
2023-03-06T05:45:50.650Z,15.40
2023-03-06T05:48:17.249Z,11.03
2023-03-06T05:50:43.903Z,7.37
2023-03-06T05:53:10.509Z,9.70
2023-03-06T05:55:37.105Z,19.27
2023-03-06T05:58:03.891Z,6.13
2023-03-06T06:00:30.635Z,4.97
2023-03-06T06:02:59.702Z,8.90
2023-03-06T06:05:26.279Z,4.40
2023-03-06T06:10:38.319Z,6.60
2023-03-06T06:13:05.203Z,4.63
2023-03-06T06:15:31.944Z,9.27
2023-03-06T06:17:58.734Z,6.33
2023-03-06T06:20:25.430Z,6.83
2023-03-06T06:22:52.046Z,6.67
2023-03-06T06:25:18.735Z,3.23
2023-03-06T06:27:45.468Z,5.37
2023-03-06T06:30:12.811Z,8.50
2023-03-06T06:32:39.666Z,6.27
2023-03-06T06:35:06.548Z,2.30
2023-03-06T06:37:33.214Z,3.70
2023-03-06T06:39:59.786Z,9.23
2023-03-06T06:45:11.091Z,7.47
2023-03-06T06:50:25.214Z,11.97
2023-03-06T06:55:36.399Z,8.20
2023-03-06T06:58:03.073Z,10.77
2023-03-06T07:00:29.863Z,6.50
2023-03-06T07:02:56.433Z,5.90
2023-03-06T07:08:07.222Z,9.63
2023-03-06T07:13:18.024Z,3.93
2023-03-06T07:15:44.725Z,3.90
2023-03-06T07:18:11.340Z,11.77
2023-03-06T07:20:37.922Z,10.43
2023-03-06T07:23:04.690Z,5.77
2023-03-06T07:25:31.277Z,8.07
2023-03-06T07:27:58.140Z,6.60
2023-03-06T07:30:24.864Z,9.93
2023-03-06T07:32:55.119Z,9.57
2023-03-06T07:35:22.033Z,7.47
2023-03-06T07:40:32.942Z,9.53
2023-03-06T07:43:16.854Z,9.53
2023-03-06T07:45:55.400Z,9.53
2023-03-06T07:48:21.999Z,11.37
2023-03-06T07:50:56.027Z,8.33
2023-03-06T07:53:24.782Z,10.67
2023-03-06T07:55:51.646Z,7.47
2023-03-06T07:58:18.262Z,6.23
2023-03-06T08:00:44.892Z,7.53
2023-03-06T08:03:11.667Z,7.73
2023-03-06T08:05:38.430Z,5.13
2023-03-06T08:08:05.286Z,5.43
2023-03-06T08:10:31.981Z,7.43
2023-03-06T08:12:58.716Z,8.40
2023-03-06T08:15:25.442Z,6.43
2023-03-06T08:17:52.416Z,7.50
2023-03-06T08:20:19.107Z,5.67
2023-03-06T08:25:30.070Z,5.03
2023-03-06T08:30:42.724Z,5.67
2023-03-06T08:33:09.569Z,5.90
2023-03-06T08:35:36.446Z,5.30
2023-03-06T08:38:03.088Z,6.50
2023-03-06T08:40:30.566Z,3.53
2023-03-06T08:42:57.193Z,5.23
2023-03-06T08:45:23.923Z,6.60
2023-03-06T08:47:50.930Z,6.30
2023-03-06T08:50:18.988Z,6.50
2023-03-06T08:52:45.654Z,6.07
2023-03-06T08:55:14.167Z,6.03
2023-03-06T08:57:41.782Z,4.83
2023-03-06T09:00:09.129Z,6.13
2023-03-06T09:02:36.009Z,7.67
2023-03-06T09:05:04.805Z,6.27
2023-03-06T09:07:31.559Z,5.10
2023-03-06T09:12:50.175Z,5.60
2023-03-06T09:15:17.963Z,1.73
2023-03-06T09:17:44.899Z,4.43
2023-03-06T09:20:11.989Z,2.50
2023-03-06T09:25:25.094Z,7.50
2023-03-06T09:28:08.652Z,4.10
2023-03-06T09:30:37.560Z,3.87
2023-03-06T09:33:04.348Z,3.73
2023-03-06T09:35:31.040Z,5.73
2023-03-06T09:37:57.733Z,5.70
2023-03-06T09:40:33.974Z,3.27
2023-03-06T09:43:00.840Z,5.13
2023-03-06T09:45:28.100Z,1.93
2023-03-06T09:48:02.049Z,3.87
2023-03-06T09:50:38.758Z,4.80
2023-03-06T09:53:17.774Z,2.67
2023-03-06T09:55:46.323Z,7.60
2023-03-06T09:58:12.930Z,4.27
2023-03-06T10:00:47.181Z,4.20
2023-03-06T10:03:23.079Z,2.83
2023-03-06T10:08:55.633Z,7.57
2023-03-06T10:11:23.906Z,5.40
2023-03-06T10:13:51.013Z,6.10
2023-03-06T10:16:17.768Z,2.53
2023-03-06T10:18:44.553Z,3.00
2023-03-06T10:21:19.516Z,4.30
2023-03-06T10:23:54.240Z,2.87
2023-03-06T10:26:32.936Z,12.43
2023-03-06T10:29:11.844Z,6.50
2023-03-06T10:31:39.027Z,2.40
2023-03-06T10:34:17.273Z,2.40
2023-03-06T10:36:44.066Z,2.77
2023-03-06T10:39:15.261Z,3.03
2023-03-06T10:44:26.357Z,4.73
2023-03-06T10:46:53.344Z,5.67
2023-03-06T10:49:33.983Z,3.83
2023-03-06T10:52:01.836Z,2.80
2023-03-06T10:54:32.666Z,2.87
2023-03-06T10:56:59.508Z,8.03
2023-03-06T10:59:28.449Z,4.93
2023-03-06T11:01:58.479Z,5.20
2023-03-06T11:04:34.951Z,4.17
2023-03-06T11:07:07.758Z,3.07
2023-03-06T11:09:34.935Z,3.63
2023-03-06T11:12:22.281Z,1.37
2023-03-06T11:15:10.144Z,2.83
2023-03-06T11:17:53.374Z,2.37
2023-03-06T11:20:33.601Z,4.07
2023-03-06T11:23:11.275Z,5.37
2023-03-06T11:25:40.258Z,2.57
2023-03-06T11:28:07.802Z,4.93
2023-03-06T11:30:43.014Z,4.57
2023-03-06T11:33:29.992Z,2.93
2023-03-06T11:35:57.422Z,4.33
2023-03-06T11:38:32.301Z,5.10
2023-03-06T11:41:00.616Z,5.23
2023-03-06T11:43:30.486Z,2.83
2023-03-06T11:45:57.721Z,2.33
2023-03-06T11:48:42.527Z,2.53
2023-03-06T11:51:19.353Z,6.33
2023-03-06T11:53:47.058Z,5.43
2023-03-06T11:56:14.546Z,3.03
2023-03-06T11:58:47.348Z,3.10
2023-03-06T12:01:32.829Z,3.67
2023-03-06T12:04:18.224Z,2.00
2023-03-06T12:07:00.130Z,2.90
2023-03-06T12:09:36.758Z,5.13
2023-03-06T12:12:09.481Z,5.30
2023-03-06T12:15:00.304Z,3.60
2023-03-06T12:17:27.105Z,5.27
2023-03-06T12:20:12.732Z,7.30
2023-03-06T12:23:14.966Z,0.97
2023-03-06T12:28:35.083Z,6.10
2023-03-06T12:31:20.292Z,1.53
2023-03-06T12:33:53.075Z,3.63
2023-03-06T12:36:22.694Z,1.50
2023-03-06T12:38:55.081Z,6.13
2023-03-06T12:41:21.720Z,4.37
2023-03-06T12:43:51.280Z,3.40
2023-03-06T12:46:19.280Z,2.83
2023-03-06T12:48:48.486Z,3.13
2023-03-06T12:51:16.730Z,2.50
2023-03-06T12:53:43.344Z,5.30
2023-03-06T12:56:09.951Z,5.23
2023-03-06T12:58:45.269Z,2.93
2023-03-06T13:01:30.792Z,4.43
2023-03-06T13:04:16.365Z,7.00
2023-03-06T13:06:58.531Z,5.63
2023-03-06T13:09:37.218Z,6.70
2023-03-06T13:12:08.300Z,7.67
2023-03-06T13:14:42.306Z,5.10
2023-03-06T13:17:24.193Z,4.10
2023-03-06T13:20:09.838Z,3.67
2023-03-06T13:22:36.490Z,5.30
2023-03-06T13:25:18.407Z,9.67
2023-03-06T13:27:45.027Z,4.77
2023-03-06T13:30:22.117Z,3.97
2023-03-06T13:32:49.385Z,4.83
2023-03-06T13:35:34.455Z,3.60
2023-03-06T13:38:01.308Z,6.93
2023-03-06T13:40:36.662Z,3.77
2023-03-06T13:43:09.086Z,6.70
2023-03-06T13:45:44.638Z,3.17
2023-03-06T13:48:41.525Z,13.67
2023-03-06T13:51:16.744Z,4.67
2023-03-06T13:53:53.581Z,4.87
2023-03-06T13:56:39.040Z,3.00
2023-03-06T13:59:17.734Z,4.63
2023-03-06T14:01:47.576Z,4.93
2023-03-06T14:04:32.847Z,4.83
2023-03-06T14:07:11.873Z,4.73
2023-03-06T14:09:41.519Z,3.27
2023-03-06T14:12:09.569Z,6.87
2023-03-06T14:14:40.136Z,7.83
2023-03-06T14:17:06.868Z,5.43
2023-03-06T14:19:36.516Z,1.87
2023-03-06T14:22:03.906Z,4.03
2023-03-06T14:24:34.636Z,3.73
2023-03-06T14:27:01.709Z,6.03
2023-03-06T14:29:28.950Z,7.87
2023-03-06T14:31:56.525Z,4.10
2023-03-06T14:34:30.523Z,5.83
2023-03-06T14:37:01.315Z,5.23
2023-03-06T14:39:35.582Z,3.10
2023-03-06T14:42:06.261Z,3.97
2023-03-06T14:44:33.340Z,2.97
2023-03-06T14:50:15.812Z,4.07
2023-03-06T14:52:42.922Z,3.70
2023-03-06T14:55:15.241Z,4.47
2023-03-06T14:57:41.927Z,4.53
2023-03-06T15:00:30.262Z,4.33
2023-03-06T15:02:57.862Z,5.00
2023-03-06T15:05:26.126Z,23.57
2023-03-06T15:07:52.906Z,5.50
2023-03-06T15:10:20.564Z,3.93
2023-03-06T15:12:47.270Z,3.97
2023-03-06T15:15:13.923Z,4.33
2023-03-06T15:17:44.140Z,2.43
2023-03-06T15:20:29.593Z,2.90
2023-03-06T15:22:56.226Z,5.80
2023-03-06T15:25:31.889Z,2.50
2023-03-06T15:28:22.214Z,4.17
2023-03-06T15:34:06.235Z,4.70
2023-03-06T15:36:33.706Z,6.47
2023-03-06T15:39:00.991Z,6.67
2023-03-06T15:41:27.988Z,7.23
2023-03-06T15:43:54.761Z,7.40
2023-03-06T15:46:21.452Z,4.73
2023-03-06T15:51:53.720Z,7.83
2023-03-06T15:57:05.336Z,7.57
2023-03-06T15:59:33.335Z,6.33
2023-03-06T16:02:00.572Z,5.77
2023-03-06T16:04:27.201Z,7.33
2023-03-06T16:06:53.880Z,5.57
2023-03-06T16:09:21.459Z,10.50
2023-03-06T16:11:48.087Z,5.90
2023-03-06T16:14:18.827Z,13.97
2023-03-06T16:16:45.632Z,14.47
2023-03-06T16:19:25.225Z,11.33
2023-03-06T16:21:52.517Z,9.83
2023-03-06T16:24:19.134Z,9.40
2023-03-06T16:26:46.994Z,6.60
2023-03-06T16:29:17.411Z,5.53
2023-03-06T16:31:44.142Z,11.37
2023-03-06T16:34:10.812Z,23.27
2023-03-06T16:36:37.506Z,13.77
2023-03-06T16:39:04.401Z,15.27
2023-03-06T16:41:31.285Z,15.43
2023-03-06T16:43:58.687Z,10.77
2023-03-06T16:46:25.516Z,18.80
2023-03-06T16:49:03.352Z,11.20
2023-03-06T16:51:30.044Z,10.00
2023-03-06T16:53:56.665Z,8.73
2023-03-06T16:56:23.331Z,9.37
2023-03-06T16:58:50.014Z,12.10
2023-03-06T17:01:19.742Z,7.50
2023-03-06T17:03:46.425Z,8.43
2023-03-06T17:06:13.975Z,7.97
2023-03-06T17:08:40.621Z,8.80
2023-03-06T17:13:51.896Z,13.20
2023-03-06T17:16:18.945Z,5.57
2023-03-06T17:18:47.068Z,7.60
2023-03-06T17:21:15.690Z,8.27
2023-03-06T17:23:42.797Z,20.00
2023-03-06T17:26:10.652Z,15.90
2023-03-06T17:28:38.212Z,15.87
2023-03-06T17:31:18.380Z,12.43
2023-03-06T17:33:45.398Z,8.63
2023-03-06T17:36:12.371Z,14.30
2023-03-06T17:41:24.594Z,10.07
2023-03-06T17:43:52.061Z,13.33
2023-03-06T17:46:19.193Z,11.90
2023-03-06T17:48:45.829Z,8.40
2023-03-06T17:51:12.797Z,10.43
2023-03-06T17:53:39.514Z,8.47
2023-03-06T17:56:09.682Z,10.33
2023-03-06T18:01:22.137Z,10.17
2023-03-06T18:03:49.309Z,9.00
2023-03-06T18:06:16.262Z,11.60
2023-03-06T18:08:43.555Z,7.80
2023-03-06T18:11:10.815Z,8.97
2023-03-06T18:13:38.231Z,9.37
2023-03-06T18:16:06.626Z,7.27
2023-03-06T18:18:33.470Z,9.47
2023-03-06T18:21:06.770Z,6.53
2023-03-06T18:23:33.467Z,6.73
2023-03-06T18:26:26.709Z,6.37
2023-03-06T18:28:54.526Z,6.47
2023-03-06T18:31:24.649Z,5.30
2023-03-06T18:33:52.049Z,5.97
2023-03-06T18:36:18.819Z,9.57
2023-03-06T18:38:45.855Z,8.27
2023-03-06T18:41:12.816Z,12.97
2023-03-06T18:43:39.852Z,8.07
2023-03-06T18:46:06.810Z,9.43
2023-03-06T18:48:36.504Z,9.40
2023-03-06T18:51:07.006Z,10.50
2023-03-06T18:53:35.001Z,15.37
2023-03-06T18:56:01.834Z,29.90
2023-03-06T18:58:28.532Z,29.57
2023-03-06T19:00:56.680Z,30.87
2023-03-06T19:03:27.248Z,44.17
2023-03-06T19:05:54.035Z,37.70
2023-03-06T19:08:20.734Z,36.67
2023-03-06T19:10:47.504Z,37.17
2023-03-06T19:13:14.831Z,35.97
2023-03-06T19:15:42.645Z,44.97
2023-03-06T19:18:09.456Z,63.73
2023-03-06T19:20:36.791Z,109.87
2023-03-06T19:23:03.474Z,129.23
2023-03-06T19:25:30.461Z,73.13
2023-03-06T19:27:57.153Z,82.80
2023-03-06T19:30:25.743Z,83.17
2023-03-06T19:32:53.012Z,84.03
2023-03-06T19:35:20.100Z,74.10
2023-03-06T19:37:46.745Z,57.50
2023-03-06T19:40:14.086Z,56.60
2023-03-06T19:42:41.938Z,63.13
2023-03-06T19:45:09.125Z,54.23
2023-03-06T19:47:36.165Z,57.70
2023-03-06T19:50:02.906Z,51.03
2023-03-06T19:52:29.558Z,49.33
2023-03-06T19:54:56.367Z,46.57
2023-03-06T20:00:08.751Z,46.87
2023-03-06T20:02:41.484Z,46.37
2023-03-06T20:05:09.698Z,47.50
2023-03-06T20:07:36.776Z,34.00
2023-03-06T20:10:03.811Z,38.83
2023-03-06T20:12:30.610Z,37.20
2023-03-06T20:14:57.339Z,39.37
2023-03-06T20:17:26.106Z,40.10
2023-03-06T20:19:52.959Z,30.63
2023-03-06T20:22:19.874Z,39.17
2023-03-06T20:27:31.274Z,22.43
2023-03-06T20:29:57.959Z,30.17
2023-03-06T20:32:24.719Z,26.23
2023-03-06T20:34:51.452Z,19.03
2023-03-06T20:37:18.379Z,20.03
2023-03-06T20:39:46.927Z,22.80
2023-03-06T20:42:13.690Z,24.77
2023-03-06T20:44:40.379Z,21.90
2023-03-06T20:47:10.061Z,27.00
2023-03-06T20:49:36.791Z,27.87
2023-03-06T20:52:03.822Z,21.13
2023-03-06T20:54:30.624Z,25.40
2023-03-06T20:56:57.588Z,25.93
2023-03-06T21:02:09.856Z,28.07
2023-03-06T21:07:25.510Z,25.87
2023-03-06T21:09:52.564Z,27.90
2023-03-06T21:12:19.318Z,30.77
2023-03-06T21:14:49.563Z,29.10
2023-03-06T21:20:00.684Z,38.43
2023-03-06T21:25:13.193Z,46.77
2023-03-06T21:27:40.180Z,44.90
2023-03-06T21:30:07.240Z,37.80
2023-03-06T21:32:34.046Z,46.80
2023-03-06T21:35:00.840Z,52.77
2023-03-06T21:37:27.542Z,56.87
2023-03-06T21:39:54.241Z,51.63
2023-03-06T21:42:20.995Z,58.03
2023-03-06T21:44:47.894Z,57.00
2023-03-06T21:47:14.652Z,57.57
2023-03-06T21:49:41.498Z,60.67
2023-03-06T21:52:08.204Z,60.17
2023-03-06T21:54:35.070Z,65.23
2023-03-06T21:59:47.541Z,70.00
2023-03-06T22:02:14.217Z,56.13
2023-03-06T22:04:41.655Z,59.53
2023-03-06T22:07:08.406Z,56.83
2023-03-06T22:09:37.243Z,57.47
2023-03-06T22:12:04.153Z,66.37
2023-03-06T22:14:34.685Z,64.60
2023-03-06T22:17:01.552Z,69.83
2023-03-06T22:19:28.948Z,62.23
2023-03-06T22:21:55.793Z,60.87
2023-03-06T22:24:23.320Z,59.97
2023-03-06T22:26:50.203Z,53.53
2023-03-06T22:29:17.115Z,58.80
2023-03-06T22:34:31.649Z,57.70
2023-03-06T22:39:44.129Z,56.77
2023-03-06T22:42:11.106Z,57.43
2023-03-06T22:44:37.863Z,50.70
2023-03-06T22:47:04.973Z,56.83
2023-03-06T22:49:32.344Z,48.17
2023-03-06T22:51:59.013Z,44.33
2023-03-06T22:54:25.632Z,39.07
2023-03-06T22:56:52.277Z,41.93
2023-03-06T22:59:19.053Z,39.77
2023-03-06T23:01:46.063Z,41.00
2023-03-06T23:04:13.015Z,39.43
2023-03-06T23:06:40.399Z,35.63
2023-03-06T23:09:08.274Z,34.43
2023-03-06T23:14:56.592Z,37.03
2023-03-06T23:17:42.009Z,35.83
2023-03-06T23:20:27.305Z,39.10
2023-03-06T23:25:59.404Z,35.53
2023-03-06T23:31:11.073Z,38.00
2023-03-06T23:36:22.839Z,36.33
2023-03-06T23:38:49.496Z,27.23
2023-03-06T23:41:17.146Z,31.17
2023-03-06T23:43:43.919Z,30.63
2023-03-06T23:46:10.727Z,27.80
2023-03-06T23:48:38.005Z,25.70
2023-03-06T23:51:05.558Z,29.17
2023-03-06T23:53:32.151Z,25.00
2023-03-06T23:55:58.772Z,25.07
2023-03-06T23:58:25.471Z,27.40
